首页
METAR-TAF:

METAR-TAF

机场 :

奧格斯堡機場

奥格斯堡, 德国

纬度: 48-26N, 经度: 010-56E, 海拔: 461米

当前天气观测

该预报发布于21分钟前的05:50 UTC
风速7节,风向西
温度 12°C
湿度 76%
气压 1031 hPa
能见度10公里或以上
少量云层高于3800英尺
散云层高于4600英尺

METAR: EDMA 250550Z 27007KT 9999 FEW038 SCT046 12/08 Q1031

时间: 08:11 (06:11 UTC)

预报

该预报发布于1小时和11分钟前的05:00 UTC
预报有效从25日的 06点(UTC)到 25日的 15点(UTC)
风速7节,风向西
能见度10公里或以上
散云层高于2500英尺
多云层高于4000英尺
成为
从 25日的 09点(UTC)到 25日的 10点(UTC)
风速12节,风向西转西北
几率 30% :
短暂存在
从 25日的 10点(UTC)到 25日的 15点(UTC)
风速15节,风向西北,有时为25节阵风
多云层高于2500英尺, 塔状积云.
阵雨

TAF: EDMA 250500Z 2506/2515 27007KT 9999 SCT025 BKN040 BECMG 2509/2510 29012KT PROB30 TEMPO 2510/2515 31015G25KT SHRA BKN025TCU

超过4000个机场的气象观测和天气预报(METAR&TAF报告)。

可查询的气象台以黄色和红色小点在地图上表示。

将鼠标移到小点上方,可查看气象台名称。

然后点击查看天气观测和预报。

如需切换地图:点击带黑十字的绿色按钮放大地图;点击带横线的绿色按钮缩小地图;或者点击绿色箭头查看邻近地区的地图。


METAR-TAF: